Time;durP1;ratioP1;P1;durP2;ratioP2;P2;SDS_P1;SDS_P2;PMS_P1;PMS_P2;Temp;Humidity;BMP_temperature;BMP_pressure;BME280_temperature;BME280_humidity;BME280_pressure;Samples;Min_cycle;Max_cycle;Signal;HPM_P1;HPM_P2
2021/05/10 00:00:48;;;;;;;2.25;0.85;;;;;;;22.46;46.55;97254.81;5062156;28;20199;-60
2021/05/10 00:03:14;;;;;;;3.08;0.70;;;;;;;22.46;46.45;97256.66;5057735;28;20206;-59
2021/05/10 00:05:40;;;;;;;1.50;0.90;;;;;;;22.45;46.18;97274.47;5060540;28;20210;-58
2021/05/10 00:08:07;;;;;;;3.13;0.90;;;;;;;22.45;46.28;97277.13;5056990;28;20562;-60
2021/05/10 00:10:35;;;;;;;1.83;1.00;;;;;;;22.45;46.17;97282.47;5064993;28;20241;-59
2021/05/10 00:13:03;;;;;;;1.83;1.00;;;;;;;22.45;46.33;97285.13;5060643;28;20210;-58
2021/05/10 00:15:29;;;;;;;2.78;0.95;;;;;;;22.45;46.27;97290.47;5062622;28;20198;-59
2021/05/10 00:18:01;;;;;;;2.20;1.00;;;;;;;22.47;46.03;97284.94;5058497;28;20263;-61
2021/05/10 00:20:27;;;;;;;2.40;0.70;;;;;;;22.43;46.25;97279.19;5062378;28;20217;-60
2021/05/10 00:22:53;;;;;;;1.30;0.85;;;;;;;22.40;46.95;97282.22;5055578;28;20233;-58
2021/05/10 00:25:20;;;;;;;2.47;0.95;;;;;;;22.40;46.17;97286.69;5057214;28;20198;-55
2021/05/10 00:27:47;;;;;;;1.77;0.80;;;;;;;22.39;45.83;97283.22;5054873;28;20461;-60
2021/05/10 00:30:14;;;;;;;2.35;1.00;;;;;;;22.40;46.53;97276.03;5062559;28;20974;-58
2021/05/10 00:32:40;;;;;;;3.92;0.82;;;;;;;22.37;46.66;97261.28;5064829;28;20206;-58
2021/05/10 00:35:06;;;;;;;1.98;1.05;;;;;;;22.39;46.28;97267.22;5061471;28;20203;-58
2021/05/10 00:37:32;;;;;;;1.95;0.80;;;;;;;22.40;46.71;97263.56;5064879;28;20229;-58
2021/05/10 00:39:58;;;;;;;1.63;0.93;;;;;;;22.37;46.07;97261.28;5060565;28;20214;-56
2021/05/10 00:42:24;;;;;;;3.42;1.02;;;;;;;22.37;46.66;97266.59;5054407;28;20608;-57
2021/05/10 00:44:51;;;;;;;3.45;0.73;;;;;;;22.39;46.45;97267.22;5050799;28;20221;-59
2021/05/10 00:47:17;;;;;;;2.78;0.93;;;;;;;22.39;46.10;97258.44;5057643;28;20652;-59
2021/05/10 00:49:44;;;;;;;2.55;0.95;;;;;;;22.38;46.68;97254.91;5059227;28;20338;-58
2021/05/10 00:52:10;;;;;;;2.15;0.90;;;;;;;22.37;46.08;97258.63;5052101;28;20286;-58
2021/05/10 00:54:36;;;;;;;1.75;0.80;;;;;;;22.38;46.59;97262.91;5060355;28;20222;-58
2021/05/10 00:57:02;;;;;;;2.05;0.85;;;;;;;22.36;46.35;97264.94;5062155;28;20230;-59
2021/05/10 00:59:29;;;;;;;2.53;1.00;;;;;;;22.37;46.54;97258.63;5059587;28;20584;-59
2021/05/10 01:01:56;;;;;;;2.05;0.80;;;;;;;22.37;46.85;97247.97;5058884;28;20206;-57
2021/05/10 01:04:22;;;;;;;1.65;0.73;;;;;;;22.37;46.47;97266.59;5056361;28;20214;-57
2021/05/10 01:06:48;;;;;;;1.38;0.85;;;;;;;22.37;46.30;97255.94;5055765;28;20282;-60
2021/05/10 01:09:14;;;;;;;1.40;0.68;;;;;;;22.38;46.07;97256.78;5063632;28;20245;-53
2021/05/10 01:11:40;;;;;;;2.60;0.90;;;;;;;22.36;46.02;97259.63;5060554;28;20199;-57
2021/05/10 01:14:06;;;;;;;2.65;0.80;;;;;;;22.35;46.09;97253.47;5060479;28;20195;-57
2021/05/10 01:16:33;;;;;;;2.28;0.80;;;;;;;22.34;46.98;97249.16;5063240;28;20262;-59
2021/05/10 01:19:00;;;;;;;2.67;0.93;;;;;;;22.36;46.57;97243.66;5063632;28;20603;-56
2021/05/10 01:21:27;;;;;;;1.20;0.65;;;;;;;22.38;46.65;97241.59;5066776;28;20424;-57
2021/05/10 01:23:54;;;;;;;0.98;0.60;;;;;;;22.36;46.09;97238.31;5064634;28;20730;-56
2021/05/10 01:26:20;;;;;;;1.77;0.70;;;;;;;22.34;46.24;97246.50;5071038;28;20209;-59
2021/05/10 01:28:46;;;;;;;4.82;0.75;;;;;;;22.37;46.22;97245.31;5054160;28;20887;-58
2021/05/10 01:31:15;;;;;;;2.60;0.77;;;;;;;22.35;46.99;97250.81;5065949;28;20205;-58
2021/05/10 01:33:41;;;;;;;1.27;0.77;;;;;;;22.34;46.19;97241.16;5059552;28;20207;-59
2021/05/10 01:36:08;;;;;;;4.28;0.60;;;;;;;22.33;46.14;97244.00;5058136;28;20524;-58
2021/05/10 01:38:34;;;;;;;1.50;0.80;;;;;;;22.34;46.55;97240.34;5064343;28;20752;-59
2021/05/10 01:41:01;;;;;;;1.73;0.80;;;;;;;22.34;47.08;97243.00;5059578;28;20202;-57
2021/05/10 01:43:27;;;;;;;3.70;0.85;;;;;;;22.34;46.55;97240.34;5052843;28;20203;-58
2021/05/10 01:45:54;;;;;;;3.30;0.80;;;;;;;22.31;46.98;97238.06;5063314;28;20639;-58
2021/05/10 01:48:20;;;;;;;2.47;1.00;;;;;;;22.31;46.35;97236.22;5064641;28;20226;-57
2021/05/10 01:50:48;;;;;;;2.40;0.82;;;;;;;22.32;47.07;97231.72;5055604;28;20202;-56
2021/05/10 01:53:14;;;;;;;2.85;0.90;;;;;;;22.33;46.44;97238.69;5066476;28;20237;-58
2021/05/10 01:55:41;;;;;;;1.38;0.80;;;;;;;22.32;46.44;97237.88;5058502;28;20653;-58
2021/05/10 01:58:09;;;;;;;1.70;0.85;;;;;;;22.30;47.01;97239.06;5063698;28;20599;-54
2021/05/10 02:00:38;;;;;;;1.52;0.90;;;;;;;22.30;46.82;97233.75;5060909;28;20202;-55
2021/05/10 02:03:06;;;;;;;3.13;1.00;;;;;;;22.30;46.98;97233.75;5066776;28;20628;-55
2021/05/10 02:05:33;;;;;;;3.05;0.88;;;;;;;22.30;47.00;97228.41;5062856;28;20207;-58
2021/05/10 02:08:01;;;;;;;1.05;0.63;;;;;;;22.29;46.98;97224.13;5061981;28;20203;-55
2021/05/10 02:10:30;;;;;;;1.20;0.80;;;;;;;22.29;46.14;97226.78;5062618;28;20207;-59
2021/05/10 02:12:58;;;;;;;2.10;0.90;;;;;;;22.30;46.68;97233.75;5053186;28;20870;-59
2021/05/10 02:15:26;;;;;;;2.50;0.82;;;;;;;22.27;46.76;97228.78;5064077;28;20298;-59
2021/05/10 02:17:53;;;;;;;1.00;0.80;;;;;;;22.27;46.44;97223.47;5054132;28;20834;-57
2021/05/10 02:20:21;;;;;;;1.60;0.85;;;;;;;22.26;47.00;97211.16;5065833;28;20556;-58
2021/05/10 02:22:54;;;;;;;1.15;0.70;;;;;;;22.25;46.97;97218.31;5065905;28;20327;-59
2021/05/10 02:25:22;;;;;;;1.80;0.70;;;;;;;22.25;46.84;97221.00;5061596;28;20285;-58
2021/05/10 02:27:48;;;;;;;2.65;0.77;;;;;;;22.27;46.48;97231.44;5064197;28;20647;-57
2021/05/10 02:30:15;;;;;;;1.27;0.70;;;;;;;22.25;47.02;97223.66;5058260;28;20207;-59
2021/05/10 02:32:42;;;;;;;1.83;0.90;;;;;;;22.25;47.06;97225.47;5059915;28;20282;-59
2021/05/10 02:35:10;;;;;;;2.72;0.70;;;;;;;22.26;46.99;97221.81;5065747;28;21212;-60
2021/05/10 02:37:36;;;;;;;1.20;0.70;;;;;;;22.21;46.45;97213.56;5066185;28;20219;-58
2021/05/10 02:40:03;;;;;;;1.85;0.82;;;;;;;22.22;46.70;97216.03;5060713;28;20233;-58
2021/05/10 02:42:29;;;;;;;2.17;0.70;;;;;;;22.22;46.49;97217.88;5062010;28;20203;-58
2021/05/10 02:44:55;;;;;;;1.65;0.80;;;;;;;22.21;46.72;97208.22;5056851;28;20207;-57
2021/05/10 02:47:21;;;;;;;0.98;0.60;;;;;;;22.22;46.76;97209.91;5063277;28;20215;-57
2021/05/10 02:49:48;;;;;;;1.77;0.85;;;;;;;22.21;46.60;97210.91;5056198;28;20235;-59
2021/05/10 02:52:14;;;;;;;1.27;0.70;;;;;;;22.21;46.33;97218.88;5059057;28;20290;-60
2021/05/10 02:54:40;;;;;;;1.23;0.70;;;;;;;22.20;46.35;97204.75;5055455;28;20915;-55
2021/05/10 02:57:06;;;;;;;2.13;0.88;;;;;;;22.20;47.00;97198.59;5061151;28;20884;-59
2021/05/10 02:59:32;;;;;;;1.30;0.57;;;;;;;22.18;47.03;97186.31;5057867;28;20241;-59
2021/05/10 03:01:58;;;;;;;3.22;0.88;;;;;;;22.20;46.63;97187.94;5061931;28;20236;-55
2021/05/10 03:04:24;;;;;;;2.22;0.60;;;;;;;22.20;46.90;97190.59;5065196;28;20203;-61
2021/05/10 03:06:51;;;;;;;1.23;0.60;;;;;;;22.19;47.18;97211.09;5064583;28;20717;-59
2021/05/10 03:09:18;;;;;;;1.83;0.60;;;;;;;22.19;47.16;97205.75;5063101;28;20317;-58
2021/05/10 03:11:45;;;;;;;0.65;0.57;;;;;;;22.18;46.76;97204.94;5059110;28;20287;-58
2021/05/10 03:14:11;;;;;;;2.63;0.70;;;;;;;22.17;46.51;97192.63;5064720;28;20723;-59
2021/05/10 03:16:37;;;;;;;1.65;0.70;;;;;;;22.16;47.08;97201.63;5060776;28;20235;-56
2021/05/10 03:19:08;;;;;;;1.35;0.70;;;;;;;22.16;47.04;97206.13;5065895;28;20245;-55
2021/05/10 03:21:34;;;;;;;0.75;0.65;;;;;;;22.16;46.95;97208.78;5054135;28;20195;-56
2021/05/10 03:24:02;;;;;;;3.78;0.63;;;;;;;22.14;46.84;97208.16;5053417;28;20205;-58
2021/05/10 03:26:28;;;;;;;1.88;0.88;;;;;;;22.16;46.66;97217.59;5061246;28;20392;-55
2021/05/10 03:28:54;;;;;;;1.17;0.90;;;;;;;22.14;46.78;97210.81;5062935;28;20218;-57
2021/05/10 03:31:20;;;;;;;1.27;0.73;;;;;;;22.13;46.62;97212.69;5059421;28;20613;-58
2021/05/10 03:33:46;;;;;;;4.38;0.70;;;;;;;22.14;46.67;97211.63;5056196;28;20203;-59
2021/05/10 03:36:12;;;;;;;0.63;0.57;;;;;;;22.15;47.13;97220.47;5061106;28;20210;-58
2021/05/10 03:38:38;;;;;;;1.88;0.57;;;;;;;22.14;47.06;97234.78;5065851;28;20275;-58
2021/05/10 03:41:05;;;;;;;1.90;0.63;;;;;;;22.15;47.06;97239.09;5056295;28;20202;-58
2021/05/10 03:43:31;;;;;;;1.50;0.60;;;;;;;22.17;47.44;97247.72;5054899;28;20603;-57
2021/05/10 03:45:57;;;;;;;0.82;0.57;;;;;;;22.21;46.80;97253.50;5057642;28;20293;-59
2021/05/10 03:48:23;;;;;;;0.70;0.60;;;;;;;22.21;47.67;97259.63;5059122;28;20214;-58
2021/05/10 03:50:49;;;;;;;1.52;0.68;;;;;;;22.22;47.22;97265.81;5058330;28;20209;-58
2021/05/10 03:53:15;;;;;;;1.02;0.65;;;;;;;22.24;46.79;97264.59;5058359;28;20287;-57
2021/05/10 03:55:42;;;;;;;1.65;0.80;;;;;;;22.25;47.14;97268.06;5063139;28;20537;-58
2021/05/10 03:58:09;;;;;;;1.08;0.70;;;;;;;22.26;47.30;97262.56;5057177;28;20242;-59
2021/05/10 04:00:35;;;;;;;1.17;0.63;;;;;;;22.28;47.64;97278.34;5057633;28;20342;-59
2021/05/10 04:03:02;;;;;;;1.05;0.50;;;;;;;22.27;47.63;97264.22;5060276;28;20224;-58
2021/05/10 04:05:49;;;;;;;1.05;0.60;;;;;;;22.28;47.68;97273.00;5060572;28;20206;-56
2021/05/10 04:08:36;;;;;;;1.10;0.70;;;;;;;22.30;47.06;97268.34;5057898;28;20299;-58
2021/05/10 04:11:04;;;;;;;0.98;0.70;;;;;;;22.30;47.26;97268.34;5061921;28;20201;-57
2021/05/10 04:13:35;;;;;;;0.82;0.57;;;;;;;22.30;47.05;97271.00;5056306;28;20278;-54
2021/05/10 04:16:01;;;;;;;2.45;0.57;;;;;;;22.30;47.11;97273.66;5059588;28;20684;-58
2021/05/10 04:18:28;;;;;;;2.83;0.77;;;;;;;22.31;47.69;97278.81;5059598;28;20231;-57
2021/05/10 04:20:54;;;;;;;4.32;0.73;;;;;;;22.32;47.64;97282.31;5061596;28;20198;-58
2021/05/10 04:23:20;;;;;;;1.48;0.82;;;;;;;22.32;48.08;97290.31;5064523;28;20199;-58
2021/05/10 04:25:48;;;;;;;2.38;0.88;;;;;;;22.33;46.77;97291.94;5066904;28;20691;-58
2021/05/10 04:28:15;;;;;;;0.70;0.70;;;;;;;22.33;47.52;97289.28;5063343;28;20311;-59
2021/05/10 04:30:42;;;;;;;1.25;0.77;;;;;;;22.33;46.93;97286.63;5060162;28;20623;-61
2021/05/10 04:33:08;;;;;;;1.13;0.82;;;;;;;22.33;47.71;97289.28;5068589;28;20195;-58
2021/05/10 04:35:34;;;;;;;1.05;0.57;;;;;;;22.32;47.32;97280.47;5065520;28;20707;-59
2021/05/10 04:38:04;;;;;;;2.17;0.82;;;;;;;22.33;47.56;97275.97;5054814;28;20267;-57
2021/05/10 04:40:30;;;;;;;0.85;0.65;;;;;;;22.32;47.58;97274.34;5062108;28;20294;-58
2021/05/10 04:42:56;;;;;;;3.65;0.70;;;;;;;22.33;47.45;97270.63;5060521;28;20213;-58
2021/05/10 04:45:22;;;;;;;1.10;0.40;;;;;;;22.32;47.56;97272.50;5057103;28;20210;-59
2021/05/10 04:47:49;;;;;;;1.88;0.73;;;;;;;22.32;47.39;97261.84;5062685;28;20205;-56
2021/05/10 04:50:16;;;;;;;1.00;0.70;;;;;;;22.33;46.93;97266.16;5063819;28;20199;-57
2021/05/10 04:52:42;;;;;;;1.98;0.80;;;;;;;22.32;47.80;97267.16;5056821;28;20670;-58
2021/05/10 04:55:10;;;;;;;1.88;0.70;;;;;;;22.32;47.52;97259.19;5056514;28;20275;-59
2021/05/10 04:57:36;;;;;;;2.22;0.77;;;;;;;22.33;47.92;97263.50;5053335;28;20281;-57
2021/05/10 05:00:04;;;;;;;1.15;0.70;;;;;;;22.34;47.98;97280.28;5057350;28;20229;-59
2021/05/10 05:02:30;;;;;;;1.95;0.95;;;;;;;22.33;47.96;97265.31;5050511;28;20766;-57
2021/05/10 05:04:57;;;;;;;1.30;0.70;;;;;;;22.35;47.59;97265.97;5056360;28;20237;-55
2021/05/10 05:07:23;;;;;;;1.17;0.60;;;;;;;22.37;47.72;97271.13;5059006;28;20198;-58
2021/05/10 05:09:49;;;;;;;2.35;0.60;;;;;;;22.37;48.10;97284.44;5067163;28;20218;-58
2021/05/10 05:12:16;;;;;;;1.42;0.60;;;;;;;22.38;47.08;97281.56;5058903;28;20719;-57
2021/05/10 05:14:42;;;;;;;1.23;0.77;;;;;;;22.37;47.94;97290.56;5056955;28;20723;-54
2021/05/10 05:17:08;;;;;;;2.25;0.70;;;;;;;22.38;47.42;97278.88;5060824;28;20222;-57
2021/05/10 05:19:34;;;;;;;2.85;0.70;;;;;;;22.37;47.63;97282.59;5061256;28;20218;-60
2021/05/10 05:22:01;;;;;;;1.55;0.90;;;;;;;22.38;47.73;97289.53;5066068;28;20606;-56
2021/05/10 05:24:28;;;;;;;1.83;0.65;;;;;;;22.34;48.15;97294.41;5061872;28;20620;-57
2021/05/10 05:26:54;;;;;;;1.13;0.70;;;;;;;22.35;48.72;97305.91;5057224;28;20199;-57
2021/05/10 05:29:22;;;;;;;22.35;2.40;;;;;;;22.40;49.20;97300.84;5059589;28;20733;-57
2021/05/10 05:31:48;;;;;;;20.65;2.65;;;;;;;22.43;49.15;97318.28;5067185;28;20552;-60
2021/05/10 05:34:15;;;;;;;16.50;2.25;;;;;;;22.44;48.58;97295.97;5061255;28;20216;-59
2021/05/10 05:36:41;;;;;;;18.48;2.95;;;;;;;22.46;48.27;97313.38;5064632;28;20716;-59
2021/05/10 05:39:08;;;;;;;20.30;2.33;;;;;;;22.50;49.15;97301.38;5073339;28;20310;-60
2021/05/10 05:41:34;;;;;;;10.35;1.50;;;;;;;22.52;49.21;97304.66;5075229;28;20623;-60
2021/05/10 05:44:01;;;;;;;13.10;2.30;;;;;;;22.58;48.46;97316.38;5071473;28;20335;-61
2021/05/10 05:46:28;;;;;;;13.27;1.73;;;;;;;22.60;48.22;97313.53;5068059;28;20706;-64
2021/05/10 05:48:55;;;;;;;15.13;1.75;;;;;;;22.62;48.58;97314.19;5064391;28;20254;-64
2021/05/10 05:51:22;;;;;;;16.95;2.67;;;;;;;22.61;48.02;97325.84;5066242;28;20370;-59
2021/05/10 05:53:48;;;;;;;12.63;2.35;;;;;;;22.68;48.86;97337.41;5066704;28;20348;-61
2021/05/10 05:56:15;;;;;;;9.98;1.30;;;;;;;22.73;47.55;97340.31;5071941;28;20206;-62
2021/05/10 05:58:42;;;;;;;17.17;1.60;;;;;;;22.72;47.36;97344.81;5075336;28;20238;-63
2021/05/10 06:01:09;;;;;;;7.70;1.77;;;;;;;22.70;47.93;97362.03;5063070;28;20291;-62
2021/05/10 06:03:35;;;;;;;11.55;1.60;;;;;;;22.69;48.35;97373.69;5068006;28;20206;-61
2021/05/10 06:06:01;;;;;;;11.02;1.88;;;;;;;22.70;48.21;97375.34;5077039;28;20851;-58
2021/05/10 06:08:28;;;;;;;12.45;1.67;;;;;;;22.73;47.71;97380.28;5071891;28;20265;-58
2021/05/10 06:10:55;;;;;;;13.25;2.63;;;;;;;22.71;48.32;97384.97;5067017;28;20207;-59
2021/05/10 06:13:22;;;;;;;13.60;1.55;;;;;;;22.72;48.10;97381.31;5067980;28;20217;-57
2021/05/10 06:15:48;;;;;;;10.43;1.73;;;;;;;22.71;47.93;97391.13;5064774;28;21029;-59
2021/05/10 06:18:14;;;;;;;8.68;1.77;;;;;;;22.71;49.02;97390.31;5066869;28;20322;-57
2021/05/10 06:20:41;;;;;;;9.40;1.98;;;;;;;22.75;49.20;97396.94;5056807;28;20196;-60
2021/05/10 06:23:07;;;;;;;14.63;2.40;;;;;;;22.78;49.47;97409.84;5060744;28;20228;-55
2021/05/10 06:25:33;;;;;;;8.77;1.60;;;;;;;22.77;48.50;97413.53;5055256;28;20337;-56
2021/05/10 06:27:59;;;;;;;8.93;1.33;;;;;;;22.79;48.92;97419.50;5068162;28;20326;-57
2021/05/10 06:30:26;;;;;;;12.43;1.95;;;;;;;22.79;49.44;97426.69;5071166;28;20281;-56
2021/05/10 06:32:54;;;;;;;11.38;1.80;;;;;;;22.80;48.64;97420.31;5067677;28;20235;-59
2021/05/10 06:35:20;;;;;;;10.05;1.48;;;;;;;22.81;48.38;97412.16;5068161;28;20213;-58
2021/05/10 06:37:46;;;;;;;5.95;1.67;;;;;;;22.84;48.88;97406.44;5070763;28;20813;-58
2021/05/10 06:40:13;;;;;;;9.75;1.70;;;;;;;22.87;49.09;97413.25;5070091;28;20240;-57
2021/05/10 06:42:39;;;;;;;7.75;1.58;;;;;;;22.88;49.05;97410.41;5065343;28;20207;-56
2021/05/10 06:45:07;;;;;;;6.45;1.85;;;;;;;22.94;48.85;97403.47;5073620;28;20306;-59
2021/05/10 06:47:34;;;;;;;13.10;1.98;;;;;;;22.99;49.25;97411.72;5076492;28;20318;-58
2021/05/10 06:50:01;;;;;;;8.68;1.75;;;;;;;23.03;48.15;97414.84;5066720;28;20401;-59
2021/05/10 06:52:27;;;;;;;9.73;1.75;;;;;;;23.08;48.14;97415.13;5073344;28;20293;-59
2021/05/10 06:54:53;;;;;;;10.48;1.77;;;;;;;23.11;48.91;97427.25;5063888;28;20325;-57
2021/05/10 06:57:19;;;;;;;11.52;1.67;;;;;;;23.12;48.02;97424.41;5063981;28;20364;-54
2021/05/10 06:59:45;;;;;;;7.15;1.35;;;;;;;23.13;47.93;97431.38;5062370;28;20250;-54
2021/05/10 07:02:12;;;;;;;9.20;1.45;;;;;;;23.12;48.03;97437.75;5065965;28;20679;-56
2021/05/10 07:04:39;;;;;;;9.43;1.50;;;;;;;23.12;48.55;97452.91;5062962;28;20206;-59
2021/05/10 07:07:05;;;;;;;11.10;1.77;;;;;;;23.09;47.45;97464.78;5070102;28;20706;-55
2021/05/10 07:09:31;;;;;;;8.25;1.40;;;;;;;23.08;47.82;97471.09;5066819;28;20241;-55
2021/05/10 07:11:57;;;;;;;10.50;1.67;;;;;;;23.11;48.02;97481.41;5076340;28;20213;-56
2021/05/10 07:14:24;;;;;;;42.85;2.15;;;;;;;23.13;48.23;97483.88;5082815;28;20265;-55
2021/05/10 07:16:50;;;;;;;22.30;2.20;;;;;;;23.16;47.58;97479.00;5074228;28;20293;-60
2021/05/10 07:19:16;;;;;;;7.38;1.42;;;;;;;23.19;48.19;97486.63;5079658;28;20242;-58
2021/05/10 07:21:43;;;;;;;23.10;1.75;;;;;;;23.24;47.36;97496.72;5072008;28;20241;-55
2021/05/10 07:24:10;;;;;;;7.03;1.40;;;;;;;23.28;48.16;97504.16;5068610;28;20731;-56
2021/05/10 07:26:36;;;;;;;5.65;1.20;;;;;;;23.30;47.18;97500.47;5064230;28;20374;-56
2021/05/10 07:29:03;;;;;;;7.00;1.90;;;;;;;23.33;48.03;97494.75;5069981;28;20842;-59
2021/05/10 07:31:29;;;;;;;4.03;1.42;;;;;;;23.33;48.02;97492.09;5070342;28;20298;-57
2021/05/10 07:33:55;;;;;;;6.10;1.30;;;;;;;23.37;47.19;97494.19;5068950;28;20283;-51
2021/05/10 07:36:21;;;;;;;5.18;1.30;;;;;;;23.40;48.08;97509.00;5072253;28;20293;-56
2021/05/10 07:38:48;;;;;;;10.25;1.30;;;;;;;23.41;47.17;97502.66;5069952;28;20250;-53
2021/05/10 07:41:14;;;;;;;11.88;1.55;;;;;;;23.40;48.02;97504.50;5072888;28;20656;-55
2021/05/10 07:43:41;;;;;;;6.20;1.17;;;;;;;23.42;47.20;97504.31;5063374;28;20209;-54
2021/05/10 07:46:07;;;;;;;10.85;1.45;;;;;;;23.44;48.24;97518.28;5076085;28;20312;-58
2021/05/10 07:48:33;;;;;;;7.75;1.02;;;;;;;23.44;47.66;97518.28;5067783;28;20236;-58
2021/05/10 07:51:00;;;;;;;8.75;1.55;;;;;;;23.43;47.62;97511.28;5068810;28;20660;-58
2021/05/10 07:53:26;;;;;;;5.35;1.40;;;;;;;23.46;47.36;97521.56;5070244;28;20213;-55
2021/05/10 07:55:54;;;;;;;9.38;1.40;;;;;;;23.47;47.88;97517.91;5069637;28;20310;-57
2021/05/10 07:58:24;;;;;;;5.68;1.40;;;;;;;23.44;47.20;97535.09;5064165;28;20226;-56
2021/05/10 08:00:53;;;;;;;7.68;1.55;;;;;;;23.47;47.67;97517.91;5066788;28;20278;-58
2021/05/10 08:03:20;;;;;;;6.72;1.67;;;;;;;23.47;48.01;97523.25;5071779;28;20697;-51
2021/05/10 08:05:47;;;;;;;15.50;1.83;;;;;;;23.33;47.93;97516.09;5067298;28;20283;-56
2021/05/10 08:08:16;;;;;;;8.85;1.27;;;;;;;23.31;47.52;97502.13;5071282;28;20214;-58
2021/05/10 08:10:43;;;;;;;2.25;1.02;;;;;;;23.24;47.43;97496.72;5071170;28;20229;-57
2021/05/10 08:13:10;;;;;;;5.10;1.48;;;;;;;23.22;47.62;97482.75;5067658;28;20234;-57
2021/05/10 08:15:37;;;;;;;5.95;1.27;;;;;;;23.24;48.11;97492.22;5070560;28;20264;-57
2021/05/10 08:18:03;;;;;;;4.60;1.45;;;;;;;23.22;47.20;97490.75;5071914;28;20218;-53
2021/05/10 08:20:30;;;;;;;9.85;1.60;;;;;;;23.23;47.84;97489.72;5069637;28;20206;-57
2021/05/10 08:22:56;;;;;;;6.07;1.30;;;;;;;23.22;47.20;97493.44;5065380;28;20363;-57
2021/05/10 08:25:22;;;;;;;3.00;1.23;;;;;;;23.20;48.08;97498.94;5070818;28;20206;-57
2021/05/10 08:27:49;;;;;;;5.43;1.15;;;;;;;23.23;48.14;97506.56;5069893;28;20221;-56
2021/05/10 08:30:17;;;;;;;7.03;1.33;;;;;;;23.20;48.63;97511.44;5071781;28;20280;-59
2021/05/10 08:32:43;;;;;;;3.33;1.40;;;;;;;23.20;47.95;97504.28;5073847;28;20210;-55
2021/05/10 08:35:11;;;;;;;8.25;1.33;;;;;;;23.21;48.12;97505.91;5066893;28;20202;-54
2021/05/10 08:37:38;;;;;;;2.92;1.10;;;;;;;23.17;48.36;97504.66;5069537;28;20226;-57
2021/05/10 08:40:06;;;;;;;7.28;1.40;;;;;;;23.16;48.80;97518.97;5066463;28;20264;-56
2021/05/10 08:42:32;;;;;;;7.65;1.50;;;;;;;23.13;48.39;97524.69;5067201;28;20304;-57
2021/05/10 08:45:00;;;;;;;5.85;1.10;;;;;;;23.16;48.52;97528.84;5069137;28;20237;-56
2021/05/10 08:47:32;;;;;;;3.97;1.15;;;;;;;23.12;48.76;97541.72;5069395;28;20207;-58
2021/05/10 08:49:59;;;;;;;2.53;1.15;;;;;;;23.11;48.52;97529.38;5067610;28;20236;-56
2021/05/10 08:52:25;;;;;;;9.57;1.48;;;;;;;23.17;47.84;97525.97;5072719;28;20267;-56
2021/05/10 08:54:52;;;;;;;7.90;1.50;;;;;;;23.16;48.74;97524.31;5072932;28;20209;-60
2021/05/10 08:57:18;;;;;;;8.98;1.35;;;;;;;23.10;47.77;97525.09;5070140;28;20317;-59
2021/05/10 08:59:45;;;;;;;3.35;1.30;;;;;;;23.09;48.08;97537.56;5073305;28;20257;-56
2021/05/10 09:02:11;;;;;;;6.63;1.27;;;;;;;23.08;47.99;97530.59;5075696;28;20278;-58
2021/05/10 09:04:40;;;;;;;7.97;1.33;;;;;;;23.09;48.37;97536.75;5071971;28;20623;-60
2021/05/10 09:07:14;;;;;;;3.85;1.08;;;;;;;23.08;48.90;97545.75;5076500;28;20194;-57
2021/05/10 09:09:53;;;;;;;5.65;1.42;;;;;;;23.08;47.94;97548.41;5073807;28;20233;-60
2021/05/10 09:12:22;;;;;;;9.68;1.45;;;;;;;23.14;49.04;97550.34;5073253;28;20273;-59
2021/05/10 09:14:48;;;;;;;6.70;1.40;;;;;;;23.07;48.43;97558.25;5072036;28;20206;-57
2021/05/10 09:17:14;;;;;;;6.28;1.67;;;;;;;23.07;49.01;97563.59;5072239;28;20806;-59
2021/05/10 09:19:44;;;;;;;3.85;1.10;;;;;;;23.17;48.53;97560.66;5075647;28;20361;-59
2021/05/10 09:22:10;;;;;;;9.07;1.70;;;;;;;23.23;48.65;97549.25;5080958;28;20210;-58
2021/05/10 09:24:45;;;;;;;4.72;1.48;;;;;;;23.27;48.78;97555.03;5084127;28;20289;-60
2021/05/10 09:27:21;;;;;;;2.28;1.10;;;;;;;23.28;48.60;97551.31;5072503;28;20198;-56
2021/05/10 09:29:48;;;;;;;3.88;1.30;;;;;;;23.28;47.64;97562.84;5076726;28;20217;-56
2021/05/10 09:32:31;;;;;;;12.00;1.42;;;;;;;23.33;48.17;97570.28;5073988;28;20234;-58
2021/05/10 09:35:22;;;;;;;13.02;1.60;;;;;;;23.26;48.63;97569.34;5077848;28;20234;-58
2021/05/10 09:38:03;;;;;;;4.25;1.40;;;;;;;23.15;48.51;97557.34;5073955;28;20659;-57
2021/05/10 09:40:40;;;;;;;7.80;1.60;;;;;;;23.15;49.21;97560.00;5074818;28;20569;-58
2021/05/10 09:43:07;;;;;;;8.50;1.20;;;;;;;23.14;49.17;97550.34;5067027;28;20657;-55
2021/05/10 09:45:48;;;;;;;2.85;1.30;;;;;;;23.08;49.04;97551.09;5082014;28;20259;-58
2021/05/10 09:48:26;;;;;;;9.20;1.45;;;;;;;23.08;48.39;97551.09;5077845;28;20237;-59
2021/05/10 09:50:56;;;;;;;5.32;1.30;;;;;;;23.10;49.03;97565.06;5079314;28;20202;-58
2021/05/10 09:53:39;;;;;;;2.60;1.08;;;;;;;23.07;48.42;97560.94;5064803;28;20645;-57
2021/05/10 09:56:07;;;;;;;4.68;1.10;;;;;;;23.07;49.11;97563.59;5074432;28;20397;-61
2021/05/10 09:58:42;;;;;;;1.80;0.80;;;;;;;23.09;48.33;97558.09;5075480;28;20236;-56
2021/05/10 10:01:09;;;;;;;4.18;1.25;;;;;;;23.11;48.08;97560.56;5072657;28;20285;-58
2021/05/10 10:03:38;;;;;;;3.40;1.00;;;;;;;23.12;48.11;97564.91;5074727;28;20229;-59
2021/05/10 10:06:08;;;;;;;6.22;1.10;;;;;;;23.09;48.37;97558.09;5070459;28;20245;-57
2021/05/10 10:08:35;;;;;;;2.47;1.00;;;;;;;23.07;47.82;97557.44;5071977;28;20233;-55
2021/05/10 10:11:03;;;;;;;4.65;1.33;;;;;;;23.13;48.61;97559.34;5073962;28;20632;-59
2021/05/10 10:13:29;;;;;;;3.78;0.90;;;;;;;23.14;47.66;97569.00;5066135;28;20262;-59
2021/05/10 10:15:59;;;;;;;7.95;1.58;;;;;;;23.09;48.51;97584.75;5077480;28;20206;-60
2021/05/10 10:18:26;;;;;;;2.45;0.77;;;;;;;22.95;46.89;97605.03;5073352;28;20305;-59
2021/05/10 10:20:56;;;;;;;3.75;0.82;;;;;;;22.96;47.49;97592.53;5076741;28;20212;-60
2021/05/10 10:23:27;;;;;;;7.50;0.85;;;;;;;23.02;47.35;97599.78;5068429;28;20325;-62
2021/05/10 10:25:55;;;;;;;3.58;0.60;;;;;;;23.02;47.84;97602.47;5068838;28;20207;-59
2021/05/10 10:28:22;;;;;;;7.57;0.90;;;;;;;22.96;47.56;97619.19;5069258;28;20762;-58
2021/05/10 10:30:56;;;;;;;2.45;0.98;;;;;;;23.00;47.35;97623.97;5065341;28;20305;-57
2021/05/10 10:33:31;;;;;;;3.30;0.70;;;;;;;22.97;47.35;97644.84;5066505;28;20805;-56
2021/05/10 10:35:58;;;;;;;4.43;0.75;;;;;;;22.95;47.29;97650.34;5066696;28;20194;-59
2021/05/10 10:38:31;;;;;;;3.70;0.90;;;;;;;22.98;48.45;97651.81;5066377;28;20253;-56
2021/05/10 10:41:21;;;;;;;4.63;0.80;;;;;;;22.85;47.79;97663.13;5063402;28;20202;-56
2021/05/10 10:43:48;;;;;;;3.47;0.88;;;;;;;22.87;47.82;97674.41;5069381;28;20203;-59
2021/05/10 10:46:26;;;;;;;4.68;0.70;;;;;;;22.81;48.35;97665.28;5067190;28;20263;-59
2021/05/10 10:48:55;;;;;;;4.93;0.63;;;;;;;22.81;47.54;97649.31;5074740;28;20725;-58
2021/05/10 10:51:22;;;;;;;2.67;0.55;;;;;;;22.79;48.23;97642.50;5074953;28;20211;-55
2021/05/10 10:53:51;;;;;;;1.25;0.60;;;;;;;22.80;47.94;97644.16;5071745;28;20232;-60
2021/05/10 10:56:18;;;;;;;1.40;0.60;;;;;;;22.82;47.66;97637.66;5068552;28;20209;-57
2021/05/10 10:58:46;;;;;;;2.40;0.88;;;;;;;22.84;48.01;97651.59;5068488;28;20228;-58
2021/05/10 11:01:19;;;;;;;3.58;0.90;;;;;;;22.82;47.91;97653.63;5071429;28;20298;-59
2021/05/10 11:03:46;;;;;;;1.55;0.70;;;;;;;22.84;48.67;97650.78;5076296;28;20308;-57
2021/05/10 11:06:12;;;;;;;2.05;0.57;;;;;;;22.84;48.95;97648.94;5075438;28;20278;-55
2021/05/10 11:08:50;;;;;;;3.17;0.75;;;;;;;22.86;48.36;97660.25;5070624;28;20245;-56
2021/05/10 11:11:43;;;;;;;3.67;1.05;;;;;;;22.86;48.20;97665.56;5073640;28;20231;-58
2021/05/10 11:14:18;;;;;;;3.63;0.90;;;;;;;22.88;48.25;97665.38;5043220;28;20282;-54
2021/05/10 11:16:46;;;;;;;4.78;0.80;;;;;;;22.89;48.82;97675.06;5074088;28;20205;-55
2021/05/10 11:19:33;;;;;;;6.65;0.80;;;;;;;22.88;48.82;97674.22;5074298;28;20676;-55
2021/05/10 11:22:00;;;;;;;3.67;1.00;;;;;;;22.97;48.16;97679.50;5068673;28;20206;-57
2021/05/10 11:24:30;;;;;;;3.92;0.60;;;;;;;23.05;48.53;97674.91;5074564;28;20309;-53
2021/05/10 11:26:58;;;;;;;1.73;0.68;;;;;;;23.08;47.64;97687.03;5069985;28;20217;-57
2021/05/10 11:29:49;;;;;;;1.67;0.60;;;;;;;23.11;47.71;97705.34;5073795;28;20214;-58
2021/05/10 11:32:27;;;;;;;2.67;0.50;;;;;;;23.14;47.68;97714.84;5075886;28;20222;-60
2021/05/10 11:34:53;;;;;;;3.10;0.70;;;;;;;23.15;48.46;97711.13;5072188;28;20297;-56